Time;durP1;ratioP1;P1;durP2;ratioP2;P2;SDS_P1;SDS_P2;PMS_P1;PMS_P2;Temp;Humidity;BMP_temperature;BMP_pressure;BME280_temperature;BME280_humidity;BME280_pressure;Samples;Min_cycle;Max_cycle;Signal;HPM_P1;HPM_P2
2021/06/07 00:01:51;;;;;;;4.88;2.08;;;17.20;85.00;;;;;;5071273;28;20039;-86
2021/06/07 00:04:17;;;;;;;3.22;2.00;;;17.20;85.20;;;;;;5072673;28;20373;-86
2021/06/07 00:06:43;;;;;;;5.28;2.55;;;17.10;85.20;;;;;;5054524;28;20025;-86
2021/06/07 00:09:11;;;;;;;3.42;2.20;;;17.10;85.50;;;;;;5054572;28;20086;-86
2021/06/07 00:11:40;;;;;;;4.45;2.55;;;17.10;85.70;;;;;;5054424;28;20103;-86
2021/06/07 00:14:06;;;;;;;3.67;2.38;;;17.00;85.60;;;;;;5070902;28;20404;-86
2021/06/07 00:16:33;;;;;;;4.00;2.20;;;17.00;85.70;;;;;;5037813;28;20359;-86
2021/06/07 00:19:00;;;;;;;4.10;2.17;;;17.00;85.60;;;;;;5054399;28;20119;-86
2021/06/07 00:21:29;;;;;;;4.13;2.35;;;17.00;85.60;;;;;;5054432;28;20036;-86
2021/06/07 00:23:57;;;;;;;3.55;2.00;;;16.90;85.70;;;;;;5054445;28;20021;-86
2021/06/07 00:26:22;;;;;;;3.92;2.38;;;16.90;85.90;;;;;;5054315;28;20123;-86
2021/06/07 00:28:48;;;;;;;4.03;2.33;;;16.90;86.10;;;;;;5037571;28;20462;-86
2021/06/07 00:31:15;;;;;;;4.68;2.40;;;16.90;86.20;;;;;;5072246;28;20096;-86
2021/06/07 00:33:41;;;;;;;3.70;2.38;;;16.80;86.00;;;;;;5054267;28;20500;-85
2021/06/07 00:36:08;;;;;;;4.47;2.35;;;16.80;86.00;;;;;;5054493;28;20394;-86
2021/06/07 00:38:35;;;;;;;3.50;2.30;;;16.80;86.00;;;;;;5054081;28;20133;-86
2021/06/07 00:41:04;;;;;;;3.88;2.15;;;16.70;86.00;;;;;;5039769;28;20024;-86
2021/06/07 00:43:30;;;;;;;4.38;2.20;;;16.70;86.00;;;;;;5058126;28;20024;-86
2021/06/07 00:45:56;;;;;;;4.25;2.42;;;16.70;85.90;;;;;;5041499;28;20121;-85
2021/06/07 00:48:22;;;;;;;4.63;2.55;;;16.60;85.90;;;;;;5057945;28;20071;-86
2021/06/07 00:50:57;;;;;;;5.30;2.22;;;16.60;85.90;;;;;;5058300;28;20520;-85
2021/06/07 00:53:23;;;;;;;3.42;2.05;;;16.60;86.00;;;;;;5074894;28;20071;-85
2021/06/07 00:55:54;;;;;;;3.83;1.85;;;16.50;86.00;;;;;;5058264;28;20350;-85
2021/06/07 00:58:24;;;;;;;6.13;2.33;;;16.50;86.00;;;;;;5058102;28;20032;-86
2021/06/07 01:00:50;;;;;;;4.60;2.10;;;16.50;86.10;;;;;;5058535;28;20490;-85
2021/06/07 01:06:38;;;;;;;5.50;2.40;;;16.40;85.90;;;;;;5083492;28;20027;-86
2021/06/07 01:09:08;;;;;;;5.25;2.42;;;16.40;86.00;;;;;;5075040;28;20024;-86
2021/06/07 01:11:34;;;;;;;5.95;2.60;;;16.30;86.10;;;;;;5057693;28;20481;-85
2021/06/07 01:14:00;;;;;;;4.00;1.90;;;16.30;86.00;;;;;;5045149;23;20086;-86
2021/06/07 01:16:26;;;;;;;4.85;2.20;;;16.30;86.30;;;;;;5034293;28;20030;-85
2021/06/07 01:18:52;;;;;;;3.63;1.95;;;16.30;86.20;;;;;;5018352;28;20029;-86
2021/06/07 01:21:24;;;;;;;4.30;2.28;;;16.20;86.10;;;;;;5004221;28;20029;-86
2021/06/07 01:23:50;;;;;;;4.13;2.00;;;16.20;86.20;;;;;;5037639;28;20483;-86
2021/06/07 01:26:19;;;;;;;2.78;1.90;;;16.20;86.10;;;;;;5045665;28;20044;-86
2021/06/07 01:28:45;;;;;;;4.05;2.00;;;16.10;86.30;;;;;;5055192;28;20017;-85
2021/06/07 01:31:13;;;;;;;4.95;1.95;;;16.10;86.60;;;;;;5055190;28;20025;-86
2021/06/07 01:33:44;;;;;;;3.38;1.90;;;16.00;86.40;;;;;;5020657;28;20021;-86
2021/06/07 01:36:10;;;;;;;3.83;1.70;;;16.00;86.40;;;;;;5034012;28;20068;-86
2021/06/07 01:38:36;;;;;;;3.97;1.77;;;16.00;86.80;;;;;;5025396;28;20167;-86
2021/06/07 01:41:05;;;;;;;3.85;2.05;;;16.00;86.50;;;;;;5053742;28;20080;-86
2021/06/07 01:43:32;;;;;;;5.03;2.00;;;15.90;86.60;;;;;;5033810;28;20025;-85
2021/06/07 01:45:58;;;;;;;3.67;2.08;;;15.90;86.60;;;;;;5047305;28;20118;-86
2021/06/07 01:48:25;;;;;;;4.20;1.77;;;15.80;86.60;;;;;;5017100;28;20068;-86
2021/06/07 01:50:52;;;;;;;4.18;1.83;;;15.80;86.50;;;;;;5027751;28;20024;-86
2021/06/07 01:53:20;;;;;;;2.17;1.52;;;15.80;86.40;;;;;;5035665;28;20029;-86
2021/06/07 01:55:49;;;;;;;4.10;1.80;;;15.80;86.70;;;;;;5036848;28;20017;-86
2021/06/07 01:58:17;;;;;;;4.35;2.00;;;15.80;86.90;;;;;;5036664;28;20401;-86
2021/06/07 02:00:52;;;;;;;2.95;1.70;;;15.70;86.70;;;;;;5036766;28;20025;-86
2021/06/07 02:03:20;;;;;;;3.38;1.60;;;15.70;86.90;;;;;;5054588;28;20025;-86
2021/06/07 02:05:48;;;;;;;4.03;1.90;;;15.70;86.80;;;;;;5036794;28;20136;-86
2021/06/07 02:08:15;;;;;;;4.07;1.50;;;15.60;86.60;;;;;;5033397;28;20025;-86
2021/06/07 02:10:45;;;;;;;6.90;2.33;;;15.60;86.60;;;;;;5053887;28;20174;-86
2021/06/07 02:13:13;;;;;;;2.80;1.73;;;15.60;86.80;;;;;;5036268;28;20044;-86
2021/06/07 02:15:39;;;;;;;2.45;1.52;;;15.50;86.90;;;;;;5052996;28;20039;-86
2021/06/07 02:18:07;;;;;;;3.22;1.70;;;15.50;86.70;;;;;;5054503;28;20017;-86
2021/06/07 02:20:34;;;;;;;2.92;1.45;;;15.50;86.90;;;;;;5054104;28;20027;-86
2021/06/07 02:23:00;;;;;;;4.32;1.55;;;15.50;86.90;;;;;;5008942;28;20108;-86
2021/06/07 02:25:25;;;;;;;2.20;1.30;;;15.50;86.60;;;;;;5052819;28;20044;-85
2021/06/07 02:27:51;;;;;;;2.53;1.38;;;15.40;86.80;;;;;;5036108;28;20033;-86
2021/06/07 02:30:26;;;;;;;2.33;1.23;;;15.40;86.90;;;;;;5036075;28;20434;-86
2021/06/07 02:32:54;;;;;;;2.85;1.33;;;15.40;86.80;;;;;;5036150;28;20044;-86
2021/06/07 02:35:21;;;;;;;4.05;1.40;;;15.30;86.80;;;;;;5036179;28;20079;-85
2021/06/07 02:37:49;;;;;;;2.15;1.33;;;15.30;86.90;;;;;;5036230;28;20109;-86
2021/06/07 02:40:17;;;;;;;2.63;1.20;;;15.30;87.10;;;;;;5042769;28;20032;-86
2021/06/07 02:42:43;;;;;;;2.65;1.42;;;15.30;87.00;;;;;;5018539;28;20037;-86
2021/06/07 02:45:13;;;;;;;3.42;1.50;;;15.20;86.90;;;;;;5035999;28;20441;-86
2021/06/07 02:47:40;;;;;;;3.38;1.48;;;15.20;87.50;;;;;;5049639;28;20037;-86
2021/06/07 02:50:09;;;;;;;2.20;1.30;;;15.20;87.00;;;;;;5032635;28;20017;-85
2021/06/07 02:52:36;;;;;;;3.28;1.48;;;15.20;87.00;;;;;;5026234;28;20387;-86
2021/06/07 02:55:03;;;;;;;1.80;1.33;;;15.20;87.10;;;;;;5018916;28;20032;-86
2021/06/07 02:57:29;;;;;;;1.95;1.20;;;15.10;87.30;;;;;;5032307;28;20025;-86
2021/06/07 02:59:55;;;;;;;1.63;1.27;;;15.10;87.50;;;;;;5016834;28;20074;-86
2021/06/07 03:02:20;;;;;;;3.90;1.75;;;15.10;87.70;;;;;;5026062;28;20094;-86
2021/06/07 03:04:46;;;;;;;3.38;1.63;;;15.00;87.20;;;;;;5014481;28;20032;-86
2021/06/07 03:07:12;;;;;;;3.17;1.58;;;15.10;87.60;;;;;;5019086;28;20033;-86
2021/06/07 03:09:37;;;;;;;2.72;1.73;;;15.00;88.10;;;;;;5019284;28;20440;-86
2021/06/07 03:12:04;;;;;;;3.72;1.65;;;15.00;87.80;;;;;;5018915;28;20025;-86
2021/06/07 03:14:29;;;;;;;3.50;1.92;;;15.00;88.00;;;;;;5018848;28;20041;-86
2021/06/07 03:16:55;;;;;;;3.83;1.60;;;15.00;88.10;;;;;;5035512;28;20075;-86
2021/06/07 03:19:21;;;;;;;4.70;1.60;;;14.90;87.80;;;;;;5025912;28;20033;-86
2021/06/07 03:21:47;;;;;;;2.58;1.33;;;14.90;88.10;;;;;;5029345;28;20013;-86
2021/06/07 03:24:12;;;;;;;4.28;1.60;;;14.90;88.40;;;;;;5006755;28;20056;-86
2021/06/07 03:26:38;;;;;;;5.53;1.70;;;14.90;88.10;;;;;;5002596;28;20079;-86
2021/06/07 03:29:05;;;;;;;4.63;1.50;;;14.90;87.80;;;;;;5032713;28;20520;-86
2021/06/07 03:31:31;;;;;;;2.53;1.63;;;14.80;88.00;;;;;;5018906;28;20116;-86
2021/06/07 03:33:57;;;;;;;3.50;1.40;;;14.80;88.20;;;;;;5018915;28;20021;-86
2021/06/07 03:36:23;;;;;;;2.63;1.27;;;14.80;88.20;;;;;;5018695;28;20378;-86
2021/06/07 03:38:49;;;;;;;2.85;1.40;;;14.80;88.20;;;;;;5027470;28;20025;-86
2021/06/07 03:41:15;;;;;;;3.13;1.40;;;14.80;88.60;;;;;;5048816;28;20543;-86
2021/06/07 03:43:41;;;;;;;2.35;1.65;;;14.70;88.60;;;;;;5051477;28;20032;-86
2021/06/07 03:46:07;;;;;;;1.90;1.20;;;14.70;88.50;;;;;;5044863;28;20386;-86
2021/06/07 03:48:33;;;;;;;3.15;1.27;;;14.70;88.60;;;;;;5038659;28;20106;-86
2021/06/07 03:51:00;;;;;;;1.52;1.05;;;14.70;88.50;;;;;;5038764;28;20080;-86
2021/06/07 03:53:26;;;;;;;2.72;1.38;;;14.70;88.90;;;;;;5021206;28;20025;-86
2021/06/07 03:55:51;;;;;;;2.70;1.52;;;14.70;89.10;;;;;;5052515;28;20048;-86
2021/06/07 03:58:17;;;;;;;3.72;1.48;;;14.70;89.10;;;;;;5018077;28;20482;-86
2021/06/07 04:00:43;;;;;;;2.05;1.48;;;14.70;89.40;;;;;;5051255;28;20443;-86
2021/06/07 04:03:11;;;;;;;3.20;1.55;;;14.70;89.40;;;;;;5020646;28;20479;-86
2021/06/07 04:05:38;;;;;;;3.63;1.65;;;14.70;89.30;;;;;;5039343;28;20379;-86
2021/06/07 04:08:07;;;;;;;3.05;1.50;;;14.70;89.40;;;;;;5045314;28;20021;-85
2021/06/07 04:10:33;;;;;;;3.13;1.50;;;14.70;89.60;;;;;;5034479;28;20013;-86
2021/06/07 04:12:58;;;;;;;3.53;1.67;;;14.70;89.40;;;;;;5027491;28;20191;-86
2021/06/07 04:15:28;;;;;;;3.47;1.80;;;14.70;89.80;;;;;;5035529;28;20386;-86
2021/06/07 04:17:55;;;;;;;3.88;2.00;;;14.60;90.00;;;;;;5052167;28;20036;-86
2021/06/07 04:20:25;;;;;;;3.88;1.60;;;14.70;90.00;;;;;;5053734;28;20078;-86
2021/06/07 04:22:50;;;;;;;3.78;1.80;;;14.60;90.00;;;;;;5044948;28;20024;-86
2021/06/07 04:25:19;;;;;;;2.60;1.60;;;14.60;90.10;;;;;;5050894;28;20124;-86
2021/06/07 04:27:46;;;;;;;4.40;1.65;;;14.60;90.10;;;;;;5034221;28;20021;-86
2021/06/07 04:30:18;;;;;;;2.83;1.80;;;14.70;90.30;;;;;;5036979;28;20039;-86
2021/06/07 04:32:46;;;;;;;4.07;2.20;;;14.60;90.30;;;;;;5024764;28;20052;-86
2021/06/07 04:35:14;;;;;;;3.58;1.95;;;14.60;90.40;;;;;;5050846;28;20026;-86
2021/06/07 04:37:49;;;;;;;2.90;2.03;;;14.70;90.40;;;;;;5046588;28;20030;-86
2021/06/07 04:40:16;;;;;;;4.45;1.92;;;14.70;90.50;;;;;;5028326;28;20086;-86
2021/06/07 04:42:42;;;;;;;2.85;1.50;;;14.70;90.60;;;;;;5025393;28;20036;-86
2021/06/07 04:45:09;;;;;;;2.92;1.60;;;14.70;90.60;;;;;;5054095;28;20036;-86
2021/06/07 04:47:35;;;;;;;3.40;1.67;;;14.70;90.60;;;;;;5050270;28;20048;-86
2021/06/07 04:50:03;;;;;;;2.65;1.48;;;14.70;90.70;;;;;;5043098;28;20025;-86
2021/06/07 04:52:29;;;;;;;3.25;1.60;;;14.70;90.70;;;;;;5039538;28;20810;-86
2021/06/07 04:54:54;;;;;;;3.25;1.65;;;14.70;90.70;;;;;;5034220;28;20033;-86
2021/06/07 04:57:20;;;;;;;2.88;1.40;;;14.70;90.80;;;;;;5046445;28;20031;-86
2021/06/07 04:59:46;;;;;;;4.28;1.48;;;14.70;90.90;;;;;;5035958;28;20031;-86
2021/06/07 05:02:12;;;;;;;4.88;1.48;;;14.80;90.90;;;;;;5044427;28;20036;-86
2021/06/07 05:04:38;;;;;;;2.80;1.20;;;14.80;91.00;;;;;;5051421;28;20039;-86
2021/06/07 05:07:03;;;;;;;3.90;1.38;;;14.80;91.10;;;;;;5039681;28;20025;-86
2021/06/07 05:09:29;;;;;;;2.03;1.40;;;14.80;91.00;;;;;;5071826;28;20031;-86
2021/06/07 05:11:55;;;;;;;1.42;1.10;;;14.80;90.90;;;;;;5035167;28;20021;-86
2021/06/07 05:14:20;;;;;;;3.97;1.33;;;14.90;91.10;;;;;;5024921;28;20106;-86
2021/06/07 05:16:46;;;;;;;1.55;1.10;;;14.90;91.20;;;;;;5050407;28;20471;-86
2021/06/07 05:19:12;;;;;;;2.17;1.30;;;14.90;91.20;;;;;;5055634;28;20104;-86
2021/06/07 05:21:37;;;;;;;2.88;1.30;;;14.90;91.30;;;;;;5004832;28;20021;-86
2021/06/07 05:24:03;;;;;;;1.65;1.17;;;14.90;91.30;;;;;;5050778;28;20437;-86
2021/06/07 05:26:29;;;;;;;2.63;1.27;;;15.00;91.30;;;;;;5026175;28;20029;-86
2021/06/07 05:28:56;;;;;;;2.40;1.38;;;15.00;91.30;;;;;;5042984;28;20041;-86
2021/06/07 05:31:22;;;;;;;2.40;1.40;;;15.00;91.30;;;;;;5031893;28;20086;-86
2021/06/07 05:33:48;;;;;;;1.50;1.00;;;15.10;91.40;;;;;;5047900;28;20025;-85
2021/06/07 05:36:14;;;;;;;2.70;1.33;;;15.10;91.50;;;;;;5003243;28;20029;-85
2021/06/07 05:38:39;;;;;;;1.40;1.20;;;15.10;91.50;;;;;;5008395;28;20471;-85
2021/06/07 05:41:05;;;;;;;2.15;1.30;;;15.20;91.60;;;;;;5047047;28;20490;-85
2021/06/07 05:43:31;;;;;;;1.98;1.40;;;15.20;91.60;;;;;;5033791;28;20398;-85
2021/06/07 05:45:56;;;;;;;1.45;1.02;;;15.20;91.60;;;;;;5019577;28;20029;-85
2021/06/07 05:48:22;;;;;;;1.55;1.27;;;15.30;91.70;;;;;;5036408;28;20105;-85
2021/06/07 05:50:48;;;;;;;2.03;1.20;;;15.30;91.70;;;;;;5017126;28;20509;-85
2021/06/07 05:53:14;;;;;;;1.65;1.30;;;15.40;91.80;;;;;;5007350;28;20033;-85
2021/06/07 05:55:42;;;;;;;2.03;1.23;;;15.40;91.80;;;;;;5036935;28;20013;-86
2021/06/07 05:58:12;;;;;;;3.08;1.77;;;15.40;91.90;;;;;;5040602;28;20024;-86
2021/06/07 06:00:43;;;;;;;2.75;1.42;;;15.50;91.90;;;;;;5055035;28;20037;-86
2021/06/07 06:03:09;;;;;;;2.08;1.30;;;15.50;92.00;;;;;;5050517;28;20040;-86
2021/06/07 06:05:35;;;;;;;3.00;1.17;;;15.60;92.00;;;;;;5034723;28;20029;-85
2021/06/07 06:08:03;;;;;;;1.63;1.17;;;15.60;92.10;;;;;;5033053;28;20021;-85
2021/06/07 06:10:29;;;;;;;1.92;1.13;;;15.60;92.10;;;;;;5028642;28;20120;-86
2021/06/07 06:12:54;;;;;;;1.58;1.20;;;15.70;92.20;;;;;;5020071;28;20112;-86
2021/06/07 06:15:24;;;;;;;1.55;1.10;;;15.80;92.20;;;;;;5019888;28;20044;-85
2021/06/07 06:17:50;;;;;;;3.50;1.27;;;15.80;92.20;;;;;;5053230;28;20021;-86
2021/06/07 06:20:16;;;;;;;1.90;1.00;;;15.90;92.20;;;;;;5031901;28;20033;-87
2021/06/07 06:22:43;;;;;;;1.88;1.30;;;15.90;92.30;;;;;;5036770;28;20029;-87
2021/06/07 06:25:10;;;;;;;2.08;1.25;;;16.00;92.30;;;;;;5033277;28;20035;-87
2021/06/07 06:27:37;;;;;;;4.43;1.40;;;16.00;92.20;;;;;;5053439;28;20066;-87
2021/06/07 06:30:09;;;;;;;1.67;1.15;;;16.10;92.10;;;;;;5054071;28;20059;-87
2021/06/07 06:32:36;;;;;;;2.63;1.13;;;16.20;92.00;;;;;;5054533;28;20021;-87
2021/06/07 06:35:02;;;;;;;2.75;1.00;;;16.20;91.90;;;;;;5051749;28;20028;-87
2021/06/07 06:37:28;;;;;;;2.38;1.20;;;16.30;91.80;;;;;;5043145;28;20040;-87
2021/06/07 06:39:53;;;;;;;3.22;1.10;;;16.40;91.70;;;;;;5016176;28;20395;-87
2021/06/07 06:42:19;;;;;;;2.08;1.23;;;16.40;91.60;;;;;;5014248;28;20128;-88
2021/06/07 06:44:45;;;;;;;1.02;0.82;;;16.40;91.40;;;;;;5016525;28;20030;-87
2021/06/07 06:47:19;;;;;;;1.77;0.80;;;16.50;91.30;;;;;;5028413;28;20033;-88
2021/06/07 06:49:45;;;;;;;1.70;0.90;;;16.60;91.10;;;;;;5051972;28;20048;-86
2021/06/07 06:52:11;;;;;;;1.60;1.00;;;16.60;90.90;;;;;;5032151;28;20482;-87
2021/06/07 06:54:36;;;;;;;2.65;0.98;;;16.70;90.80;;;;;;5014812;28;20115;-88
2021/06/07 06:57:03;;;;;;;1.48;0.90;;;16.70;90.60;;;;;;5021554;28;20116;-88
2021/06/07 06:59:28;;;;;;;1.40;0.95;;;16.80;90.30;;;;;;5027729;28;20026;-88
2021/06/07 07:01:54;;;;;;;1.92;0.80;;;16.90;90.40;;;;;;5035860;28;20036;-88
2021/06/07 07:04:20;;;;;;;1.83;0.85;;;17.00;90.30;;;;;;5036033;28;20056;-88
2021/06/07 07:06:46;;;;;;;1.48;1.05;;;17.00;90.10;;;;;;5019442;28;20120;-88
2021/06/07 07:09:11;;;;;;;2.47;1.02;;;17.10;90.00;;;;;;5019209;28;20028;-87
2021/06/07 07:11:37;;;;;;;2.00;1.05;;;17.20;89.40;;;;;;5022121;28;20454;-88
2021/06/07 07:14:03;;;;;;;1.67;0.80;;;17.30;88.80;;;;;;5057582;23;20060;-86
2021/06/07 07:16:29;;;;;;;2.78;1.02;;;17.40;88.60;;;;;;5057208;28;20029;-86
2021/06/07 07:18:55;;;;;;;2.40;0.95;;;17.40;88.10;;;;;;5065337;28;20051;-86
2021/06/07 07:21:21;;;;;;;2.95;1.00;;;17.50;87.50;;;;;;5075066;28;20072;-85
2021/06/07 07:23:47;;;;;;;1.35;1.02;;;17.60;87.00;;;;;;5075034;28;20469;-86
2021/06/07 07:26:12;;;;;;;2.10;1.00;;;17.70;86.40;;;;;;5089364;28;20089;-86
2021/06/07 07:28:41;;;;;;;2.38;1.17;;;17.80;86.20;;;;;;5072034;28;20465;-85
2021/06/07 07:31:06;;;;;;;1.75;0.80;;;17.90;86.00;;;;;;5054407;28;20035;-86
2021/06/07 07:33:36;;;;;;;1.20;0.90;;;17.90;85.60;;;;;;5091045;28;20016;-86
2021/06/07 07:36:02;;;;;;;1.67;0.80;;;18.10;85.30;;;;;;5062092;28;20032;-86
2021/06/07 07:38:28;;;;;;;2.35;1.20;;;18.20;84.80;;;;;;5103716;28;20062;-86
2021/06/07 07:40:54;;;;;;;1.38;0.90;;;18.20;84.40;;;;;;5066747;28;20047;-84
2021/06/07 07:43:19;;;;;;;1.08;0.90;;;18.40;84.00;;;;;;5086473;28;20032;-85
2021/06/07 07:45:45;;;;;;;3.00;1.00;;;18.40;84.00;;;;;;5087759;28;20026;-85
2021/06/07 07:48:11;;;;;;;1.63;0.90;;;18.60;83.70;;;;;;5054498;28;20082;-85
2021/06/07 07:50:37;;;;;;;1.65;0.80;;;18.70;83.80;;;;;;5056274;28;20044;-85
2021/06/07 07:53:04;;;;;;;2.67;0.90;;;18.80;83.10;;;;;;5074396;28;20034;-85
2021/06/07 07:55:32;;;;;;;2.72;1.00;;;18.90;82.60;;;;;;5090355;28;20389;-84
2021/06/07 07:58:16;;;;;;;0.70;0.70;;;19.00;81.70;;;;;;5091244;28;20040;-84
2021/06/07 08:00:42;;;;;;;1.85;0.93;;;19.10;81.60;;;;;;5089942;28;20511;-85
2021/06/07 08:03:08;;;;;;;2.13;0.90;;;19.20;81.20;;;;;;5063053;28;20477;-84
2021/06/07 08:05:36;;;;;;;1.98;0.88;;;19.30;80.90;;;;;;5074232;28;20032;-84
2021/06/07 08:08:02;;;;;;;1.05;0.80;;;19.40;80.10;;;;;;5064406;28;20034;-84
2021/06/07 08:10:28;;;;;;;1.52;0.90;;;19.50;79.50;;;;;;5099637;28;20051;-85
2021/06/07 08:12:54;;;;;;;1.60;0.90;;;19.60;80.00;;;;;;5087163;28;20020;-85
2021/06/07 08:15:21;;;;;;;2.20;0.90;;;19.70;79.80;;;;;;5065219;28;20040;-85
2021/06/07 08:17:47;;;;;;;1.67;0.90;;;19.80;79.10;;;;;;5071509;28;20036;-85
2021/06/07 08:20:18;;;;;;;4.68;1.08;;;19.90;77.90;;;;;;5074184;28;20501;-85
2021/06/07 08:22:46;;;;;;;2.13;0.80;;;20.00;78.00;;;;;;5059937;28;20024;-84
2021/06/07 08:25:13;;;;;;;0.95;0.70;;;20.10;77.50;;;;;;5074130;28;20039;-85
2021/06/07 08:27:38;;;;;;;1.90;0.90;;;20.20;76.60;;;;;;5092138;28;20067;-84
2021/06/07 08:30:06;;;;;;;1.98;0.90;;;20.30;76.10;;;;;;5063893;28;20047;-85
2021/06/07 08:32:32;;;;;;;1.35;1.20;;;20.40;75.40;;;;;;5077341;28;20027;-85
2021/06/07 08:34:58;;;;;;;2.65;0.88;;;20.40;74.60;;;;;;5089521;28;20355;-84
2021/06/07 08:37:24;;;;;;;1.13;0.82;;;20.50;73.90;;;;;;5063594;28;20567;-84
2021/06/07 08:39:50;;;;;;;1.65;0.65;;;20.60;73.80;;;;;;5103052;28;20053;-84
2021/06/07 08:42:16;;;;;;;2.05;0.75;;;20.70;74.10;;;;;;5074044;28;20039;-84
2021/06/07 08:44:42;;;;;;;1.65;0.80;;;20.80;74.30;;;;;;5070606;28;20028;-83
2021/06/07 08:47:07;;;;;;;2.00;0.90;;;20.80;73.80;;;;;;5067047;28;20115;-85
2021/06/07 08:49:33;;;;;;;2.25;0.90;;;21.00;73.50;;;;;;5086818;28;20017;-84
2021/06/07 08:51:59;;;;;;;1.60;1.05;;;21.10;72.80;;;;;;5072487;28;20047;-84
2021/06/07 08:54:25;;;;;;;2.08;0.90;;;21.10;72.40;;;;;;5071866;28;20086;-84
2021/06/07 08:56:51;;;;;;;1.60;1.02;;;21.20;71.50;;;;;;5079833;28;20024;-84
2021/06/07 08:59:17;;;;;;;2.25;0.98;;;21.30;71.50;;;;;;5041055;28;20501;-85
2021/06/07 09:01:44;;;;;;;2.28;0.80;;;21.30;71.40;;;;;;5060618;28;20081;-84
2021/06/07 09:04:11;;;;;;;1.23;0.90;;;21.40;70.60;;;;;;5066597;28;20052;-84
2021/06/07 09:06:40;;;;;;;2.55;0.95;;;21.50;71.00;;;;;;5086991;28;20078;-84
2021/06/07 09:09:07;;;;;;;2.25;1.00;;;21.60;71.50;;;;;;5067841;28;20491;-84
2021/06/07 09:11:47;;;;;;;2.08;1.00;;;21.70;71.40;;;;;;5065986;28;20090;-84
2021/06/07 09:14:27;;;;;;;2.47;1.10;;;21.80;70.80;;;;;;5087056;28;20069;-84
2021/06/07 09:16:53;;;;;;;1.70;0.60;;;21.90;70.10;;;;;;5047128;28;20070;-85
2021/06/07 09:19:23;;;;;;;0.93;0.70;;;22.00;69.70;;;;;;5076825;28;20052;-84
2021/06/07 09:21:49;;;;;;;1.58;0.90;;;22.10;70.00;;;;;;5091864;28;20063;-84
2021/06/07 09:24:15;;;;;;;1.35;1.00;;;22.10;69.60;;;;;;5060286;28;20051;-85
2021/06/07 09:26:47;;;;;;;1.52;0.75;;;22.20;69.50;;;;;;5095217;28;20031;-84
2021/06/07 09:29:24;;;;;;;1.65;0.70;;;22.30;69.60;;;;;;5089250;28;20055;-85
2021/06/07 09:31:53;;;;;;;1.50;0.80;;;22.40;70.00;;;;;;5077223;28;20465;-85
2021/06/07 09:34:29;;;;;;;1.50;0.88;;;22.50;68.60;;;;;;5061727;28;20021;-85
2021/06/07 09:37:07;;;;;;;2.28;0.98;;;22.50;67.60;;;;;;5077198;28;20021;-85
2021/06/07 09:39:33;;;;;;;2.08;0.95;;;22.60;66.10;;;;;;5063029;28;20024;-85
2021/06/07 09:41:58;;;;;;;1.27;0.80;;;22.60;66.10;;;;;;5068605;28;20036;-84
2021/06/07 09:44:47;;;;;;;4.78;0.93;;;22.70;66.10;;;;;;5075112;28;20056;-85
2021/06/07 09:47:12;;;;;;;1.60;0.82;;;22.70;64.80;;;;;;5087561;28;20036;-85
2021/06/07 09:49:44;;;;;;;3.17;1.00;;;22.70;65.40;;;;;;5093611;28;20028;-85
2021/06/07 09:52:18;;;;;;;0.82;0.80;;;22.80;64.70;;;;;;5085776;28;20021;-84
2021/06/07 09:54:44;;;;;;;1.08;0.70;;;22.80;64.50;;;;;;5068103;28;20350;-84
2021/06/07 09:57:09;;;;;;;1.38;0.80;;;22.90;63.80;;;;;;5076912;28;20022;-85
2021/06/07 09:59:38;;;;;;;1.63;0.80;;;22.90;64.20;;;;;;5060101;28;20024;-85
2021/06/07 10:02:20;;;;;;;1.92;1.00;;;23.00;63.00;;;;;;5071285;28;20024;-85
2021/06/07 10:04:51;;;;;;;1.05;0.70;;;23.00;62.70;;;;;;5056571;28;20016;-84
2021/06/07 10:07:17;;;;;;;;;;;23.10;62.80;;;;;;5071449;28;20103;-85
2021/06/07 10:10:09;;;;;;;1.17;0.75;;;23.20;63.70;;;;;;5059850;28;19916;-85
2021/06/07 10:12:35;;;;;;;2.50;0.82;;;23.20;63.80;;;;;;5090970;28;20032;-84
2021/06/07 10:15:01;;;;;;;2.40;1.13;;;23.30;63.00;;;;;;5079622;28;20497;-84
2021/06/07 10:17:26;;;;;;;1.08;0.63;;;23.40;62.40;;;;;;5056591;28;20036;-84
2021/06/07 10:22:40;;;;;;;1.88;0.73;;;23.50;61.90;;;;;;5078738;28;20067;-84
2021/06/07 10:25:08;;;;;;;2.75;1.05;;;23.50;61.10;;;;;;5076029;28;20060;-84
2021/06/07 10:27:35;;;;;;;1.73;1.10;;;23.60;60.20;;;;;;5075985;28;20016;-85
2021/06/07 10:30:01;;;;;;;1.17;0.90;;;23.60;60.70;;;;;;5076562;28;20476;-84
2021/06/07 10:32:29;;;;;;;3.33;1.20;;;23.60;60.20;;;;;;5065618;28;20019;-84
2021/06/07 10:35:02;;;;;;;2.45;0.90;;;23.70;60.10;;;;;;5083688;28;20048;-84
2021/06/07 10:37:31;;;;;;;2.25;0.90;;;23.70;60.00;;;;;;5075932;28;20016;-84
2021/06/07 10:40:29;;;;;;;1.73;1.10;;;23.80;59.70;;;;;;5094145;28;20055;-84
2021/06/07 10:42:59;;;;;;;1.85;0.80;;;23.80;59.30;;;;;;5051000;28;20036;-84
2021/06/07 10:45:28;;;;;;;1.53;1.00;;;23.90;59.40;;;;;;5061666;28;20031;-84
2021/06/07 10:47:54;;;;;;;2.17;0.98;;;23.90;58.90;;;;;;5075763;28;20456;-84
2021/06/07 10:50:24;;;;;;;1.35;0.88;;;24.00;58.60;;;;;;5076016;28;20148;-84
2021/06/07 10:52:51;;;;;;;2.20;0.93;;;24.10;58.40;;;;;;5061538;28;20062;-84
2021/06/07 10:55:26;;;;;;;3.10;0.90;;;24.10;58.30;;;;;;5075604;28;20106;-84
2021/06/07 10:58:04;;;;;;;1.45;1.10;;;24.10;58.00;;;;;;5075532;28;20027;-84
2021/06/07 11:00:32;;;;;;;2.50;1.30;;;24.20;57.90;;;;;;5085163;28;20074;-84
2021/06/07 11:03:01;;;;;;;0.70;0.70;;;24.30;57.90;;;;;;5075557;28;20028;-84
2021/06/07 11:05:31;;;;;;;2.42;1.25;;;24.30;58.20;;;;;;5075478;28;20028;-85
2021/06/07 11:08:08;;;;;;;1.00;0.90;;;24.40;57.70;;;;;;5079354;28;20465;-84
2021/06/07 11:10:40;;;;;;;2.42;1.02;;;24.50;58.00;;;;;;5093546;28;20017;-84
2021/06/07 11:13:17;;;;;;;2.42;1.08;;;24.60;57.90;;;;;;5093463;28;20480;-84
2021/06/07 11:15:58;;;;;;;1.80;0.90;;;24.60;57.40;;;;;;5089318;28;20504;-84
2021/06/07 11:18:35;;;;;;;1.08;0.88;;;24.70;57.90;;;;;;5093300;28;20468;-84
2021/06/07 11:21:07;;;;;;;2.08;0.95;;;24.80;57.70;;;;;;5093276;28;20127;-85
2021/06/07 11:23:38;;;;;;;2.38;0.90;;;24.80;57.80;;;;;;5075306;28;20396;-85
2021/06/07 11:26:07;;;;;;;1.55;1.10;;;24.80;57.40;;;;;;5060270;28;20032;-85
2021/06/07 11:28:37;;;;;;;1.02;0.70;;;24.90;57.10;;;;;;5093060;28;20110;-85
2021/06/07 11:31:05;;;;;;;1.77;0.97;;;24.90;56.60;;;;;;5075024;28;20028;-85
2021/06/07 11:33:55;;;;;;;1.77;1.00;;;25.00;56.10;;;;;;5093010;28;20025;-85
2021/06/07 11:36:49;;;;;;;1.43;0.90;;;25.10;55.50;;;;;;5071398;28;20500;-84
2021/06/07 11:39:25;;;;;;;1.50;1.00;;;25.10;54.10;;;;;;5083351;28;20495;-85
2021/06/07 11:41:58;;;;;;;2.42;1.00;;;25.10;54.50;;;;;;5079681;28;20020;-84
2021/06/07 11:44:45;;;;;;;1.27;0.90;;;25.20;54.90;;;;;;5074524;28;20485;-84
2021/06/07 11:47:12;;;;;;;1.58;0.80;;;25.20;54.70;;;;;;5092620;28;20028;-85
2021/06/07 11:49:57;;;;;;;1.67;0.80;;;25.30;54.50;;;;;;5054623;28;20485;-85
2021/06/07 11:52:32;;;;;;;3.28;1.10;;;25.30;54.90;;;;;;5058093;28;20063;-85
2021/06/07 11:55:16;;;;;;;1.67;0.93;;;25.40;54.50;;;;;;5074432;28;20032;-84
2021/06/07 11:57:42;;;;;;;1.00;0.88;;;25.40;55.20;;;;;;5074345;28;20027;-84
2021/06/07 12:00:08;;;;;;;1.15;0.90;;;25.50;54.80;;;;;;5074398;28;20028;-84
2021/06/07 12:02:34;;;;;;;1.98;1.00;;;25.50;54.00;;;;;;5074180;28;20074;-85
2021/06/07 12:05:14;;;;;;;1.40;0.80;;;25.50;52.70;;;;;;5067716;28;20024;-85
2021/06/07 12:07:44;;;;;;;1.58;0.90;;;25.60;53.10;;;;;;5094635;28;20055;-84
2021/06/07 12:10:13;;;;;;;1.13;0.90;;;25.60;54.00;;;;;;5068584;28;20047;-84
2021/06/07 12:12:39;;;;;;;1.25;0.90;;;25.70;53.70;;;;;;5106863;28;20082;-84
2021/06/07 12:15:17;;;;;;;2.15;1.13;;;25.70;53.80;;;;;;5046131;28;20055;-85
2021/06/07 12:17:48;;;;;;;2.03;1.00;;;25.70;52.30;;;;;;5043446;28;20059;-84
2021/06/07 12:20:19;;;;;;;1.83;1.20;;;25.70;51.80;;;;;;5092379;28;20024;-85
2021/06/07 12:22:46;;;;;;;;;;;25.70;51.80;;;;;;5081741;28;20435;-84
2021/06/07 12:25:18;;;;;;;1.67;1.00;;;25.70;51.60;;;;;;5083946;28;19908;-84
2021/06/07 12:30:35;;;;;;;1.98;1.10;;;25.80;51.70;;;;;;5092519;28;20031;-84
2021/06/07 12:33:01;;;;;;;1.67;1.00;;;25.80;51.30;;;;;;5073899;28;20027;-84
2021/06/07 12:35:35;;;;;;;2.95;1.00;;;25.80;51.20;;;;;;5057932;28;20024;-84
2021/06/07 12:38:01;;;;;;;2.67;1.45;;;25.80;51.40;;;;;;5063249;28;20036;-84
2021/06/07 12:40:48;;;;;;;2.30;1.00;;;25.80;52.00;;;;;;5073023;28;20032;-84
2021/06/07 12:43:17;;;;;;;1.45;0.88;;;25.80;52.10;;;;;;5083994;28;20111;-84
2021/06/07 12:45:46;;;;;;;2.50;1.30;;;25.90;51.30;;;;;;5080583;28;20030;-84
2021/06/07 12:48:21;;;;;;;1.60;1.10;;;25.90;51.80;;;;;;5092961;28;20028;-84
2021/06/07 12:50:56;;;;;;;2.22;1.08;;;25.90;51.10;;;;;;5071666;28;20013;-84
2021/06/07 12:56:50;;;;;;;1.70;1.10;;;25.90;50.40;;;;;;5088169;28;20024;-84
2021/06/07 12:59:16;;;;;;;1.48;0.90;;;25.90;48.90;;;;;;5064156;28;20024;-84
2021/06/07 13:01:50;;;;;;;1.05;0.65;;;26.00;49.10;;;;;;5043901;28;20146;-84
2021/06/07 13:04:37;;;;;;;1.08;0.77;;;26.00;48.90;;;;;;5057091;28;20055;-84
2021/06/07 13:07:17;;;;;;;0.90;0.70;;;26.10;49.20;;;;;;5066289;28;20501;-84